Time;durP1;ratioP1;P1;durP2;ratioP2;P2;SDS_P1;SDS_P2;PMS_P1;PMS_P2;Temp;Humidity;BMP_temperature;BMP_pressure;BME280_temperature;BME280_humidity;BME280_pressure;Samples;Min_cycle;Max_cycle;Signal;HPM_P1;HPM_P2
2020/12/25 00:00:27;;;;;;;1999.90;999.90;;;5.10;99.90;;;;;;5061004;28;20200;-81
2020/12/25 00:02:53;;;;;;;1999.90;999.90;;;5.20;99.90;;;;;;5077955;28;20645;-81
2020/12/25 00:05:18;;;;;;;1999.90;999.90;;;5.20;99.90;;;;;;5078047;28;20406;-81
2020/12/25 00:07:44;;;;;;;1999.90;999.90;;;5.20;99.90;;;;;;5078551;28;20493;-81
2020/12/25 00:10:09;;;;;;;1999.90;999.90;;;5.20;99.90;;;;;;5078595;28;20652;-81
2020/12/25 00:12:35;;;;;;;1999.90;999.90;;;5.20;99.90;;;;;;5078379;28;20580;-81
2020/12/25 00:15:01;;;;;;;1999.90;999.90;;;5.20;99.90;;;;;;5078604;28;20243;-81
2020/12/25 00:17:26;;;;;;;1999.90;999.90;;;5.10;99.90;;;;;;5060145;28;20669;-81
2020/12/25 00:19:52;;;;;;;1999.90;999.90;;;5.10;99.90;;;;;;5078172;28;20214;-81
2020/12/25 00:22:18;;;;;;;1999.90;999.90;;;5.10;99.90;;;;;;5078626;28;20156;-81
2020/12/25 00:24:43;;;;;;;1999.90;999.90;;;5.10;99.90;;;;;;5079031;28;20168;-81
2020/12/25 00:27:09;;;;;;;1999.90;999.90;;;5.20;99.90;;;;;;5078783;28;20164;-81
2020/12/25 00:29:35;;;;;;;1999.90;999.90;;;5.20;99.90;;;;;;5077990;28;20500;-81
2020/12/25 00:32:00;;;;;;;1999.90;999.90;;;5.10;99.90;;;;;;5077285;28;20164;-81
2020/12/25 00:34:26;;;;;;;1999.90;999.90;;;5.10;99.90;;;;;;5060070;28;20174;-81
2020/12/25 00:36:52;;;;;;;1999.90;999.90;;;5.20;99.90;;;;;;5078303;28;20670;-82
2020/12/25 00:39:18;;;;;;;1999.90;999.90;;;5.20;99.90;;;;;;5078275;28;20190;-81
2020/12/25 00:41:48;;;;;;;1999.90;999.90;;;5.20;99.90;;;;;;5059758;28;20254;-81
2020/12/25 00:44:14;;;;;;;1999.90;999.90;;;5.20;99.90;;;;;;5078707;28;20585;-82
2020/12/25 00:46:40;;;;;;;1999.90;999.90;;;5.10;99.90;;;;;;5077758;28;20213;-81
2020/12/25 00:49:07;;;;;;;1999.90;999.90;;;5.20;99.90;;;;;;5077926;28;20225;-81
2020/12/25 00:51:32;;;;;;;1999.90;999.90;;;5.20;99.90;;;;;;5077660;28;20334;-81
2020/12/25 00:53:58;;;;;;;1999.90;999.90;;;5.20;99.90;;;;;;5077817;28;20257;-81
2020/12/25 00:56:24;;;;;;;1999.90;999.90;;;5.20;99.90;;;;;;5078110;28;20449;-81
2020/12/25 00:58:50;;;;;;;1999.90;999.90;;;5.10;99.90;;;;;;5059561;28;20426;-81
2020/12/25 01:01:15;;;;;;;1999.90;999.90;;;5.10;99.90;;;;;;5077380;28;20187;-81
2020/12/25 01:03:43;;;;;;;1999.90;999.90;;;5.20;99.90;;;;;;5077604;28;20211;-81
2020/12/25 01:06:16;;;;;;;1999.90;999.90;;;5.10;99.90;;;;;;5077207;28;20534;-81
2020/12/25 01:08:43;;;;;;;1999.90;999.90;;;5.20;99.90;;;;;;5077447;28;20221;-81
2020/12/25 01:11:10;;;;;;;1999.90;999.90;;;5.20;99.90;;;;;;5077562;28;20659;-81
2020/12/25 01:13:37;;;;;;;1999.90;999.90;;;5.20;99.90;;;;;;5077923;28;20690;-82
2020/12/25 01:16:08;;;;;;;1999.90;999.90;;;5.20;99.90;;;;;;5059857;28;20539;-81
2020/12/25 01:18:34;;;;;;;1999.90;999.90;;;5.20;99.90;;;;;;5077623;28;20178;-81
2020/12/25 01:21:00;;;;;;;1999.90;999.90;;;5.20;99.90;;;;;;5060461;28;20171;-81
2020/12/25 01:23:26;;;;;;;1999.90;999.90;;;5.20;99.90;;;;;;5077878;28;20164;-81
2020/12/25 01:25:52;;;;;;;1999.90;999.90;;;5.20;99.90;;;;;;5078367;28;20219;-81
2020/12/25 01:28:18;;;;;;;1999.90;999.90;;;5.20;99.90;;;;;;5076995;28;20241;-81
2020/12/25 01:30:44;;;;;;;1999.90;999.90;;;5.20;99.90;;;;;;5059335;28;20848;-81
2020/12/25 01:33:09;;;;;;;1999.90;999.90;;;5.20;99.90;;;;;;5059709;28;20207;-81
2020/12/25 01:35:36;;;;;;;1999.90;999.90;;;5.20;99.90;;;;;;5077843;28;20191;-81
2020/12/25 01:38:01;;;;;;;1999.90;999.90;;;5.30;99.90;;;;;;5077880;28;20195;-81
2020/12/25 01:40:27;;;;;;;1999.90;999.90;;;5.30;99.90;;;;;;5077384;28;20160;-81
2020/12/25 01:42:53;;;;;;;1999.90;999.90;;;5.30;99.90;;;;;;5060967;28;20220;-81
2020/12/25 01:45:18;;;;;;;1999.90;999.90;;;5.20;99.90;;;;;;5081413;28;20156;-81
2020/12/25 01:47:44;;;;;;;1999.90;999.90;;;5.20;99.90;;;;;;5081079;28;20180;-81
2020/12/25 01:50:13;;;;;;;1999.90;999.90;;;5.20;99.90;;;;;;5063317;28;20164;-82
2020/12/25 01:52:38;;;;;;;1999.90;999.90;;;5.20;99.90;;;;;;5063124;28;20639;-81
2020/12/25 01:55:06;;;;;;;1999.90;999.90;;;5.20;99.90;;;;;;5080926;28;20176;-82
2020/12/25 01:57:32;;;;;;;1999.90;999.90;;;5.20;99.90;;;;;;5080530;28;20195;-81
2020/12/25 01:59:59;;;;;;;1999.90;999.90;;;5.20;99.90;;;;;;5080798;28;20168;-81
2020/12/25 02:02:25;;;;;;;1999.90;999.90;;;5.10;99.90;;;;;;5062608;28;20583;-82
2020/12/25 02:04:52;;;;;;;1999.90;999.90;;;5.10;99.90;;;;;;5063268;28;20187;-82
2020/12/25 02:07:20;;;;;;;1999.90;999.90;;;5.10;99.90;;;;;;5081123;28;20168;-82
2020/12/25 02:09:46;;;;;;;1999.90;999.90;;;5.00;99.90;;;;;;5080500;28;20672;-82
2020/12/25 02:12:12;;;;;;;1999.90;999.90;;;5.00;99.90;;;;;;5062856;28;20168;-83
2020/12/25 02:14:38;;;;;;;1999.90;999.90;;;5.00;99.90;;;;;;5081030;28;20167;-82
2020/12/25 02:17:03;;;;;;;1999.90;999.90;;;5.00;99.90;;;;;;5062462;28;20218;-82
2020/12/25 02:19:29;;;;;;;1999.90;999.90;;;4.90;99.90;;;;;;5080751;28;20225;-81
2020/12/25 02:21:55;;;;;;;1999.90;999.90;;;4.80;99.90;;;;;;5080485;28;20160;-82
2020/12/25 02:24:20;;;;;;;1999.90;999.90;;;4.80;99.90;;;;;;5061936;28;20221;-82
2020/12/25 02:26:46;;;;;;;1999.90;999.90;;;4.80;99.90;;;;;;5062570;28;20164;-81
2020/12/25 02:29:12;;;;;;;1999.90;999.90;;;4.80;99.90;;;;;;5080577;28;20562;-82
2020/12/25 02:31:37;;;;;;;1999.90;999.90;;;4.70;99.90;;;;;;5062706;28;20168;-81
2020/12/25 02:34:03;;;;;;;1999.90;999.90;;;4.70;99.90;;;;;;5080275;28;20175;-81
2020/12/25 02:36:28;;;;;;;1999.90;999.90;;;4.70;99.90;;;;;;5061790;28;20565;-82
2020/12/25 02:38:54;;;;;;;1999.90;999.90;;;4.70;99.90;;;;;;5080418;28;20621;-82
2020/12/25 02:41:21;;;;;;;1999.90;999.90;;;4.70;99.90;;;;;;5062036;28;20179;-82
2020/12/25 02:43:48;;;;;;;1999.90;999.90;;;4.60;99.90;;;;;;5080098;28;20152;-81
2020/12/25 02:46:15;;;;;;;1999.90;999.90;;;4.60;99.90;;;;;;5062089;28;20231;-82
2020/12/25 02:48:41;;;;;;;1999.90;999.90;;;4.70;99.90;;;;;;5062513;28;20229;-82
2020/12/25 02:51:06;;;;;;;1999.90;999.90;;;4.60;99.90;;;;;;5080377;28;20167;-81
2020/12/25 02:53:32;;;;;;;1999.90;999.90;;;4.60;99.90;;;;;;5079680;28;20251;-82
2020/12/25 02:55:57;;;;;;;1999.90;999.90;;;4.60;99.90;;;;;;5079636;28;20247;-82
2020/12/25 02:58:23;;;;;;;1999.90;999.90;;;4.60;99.90;;;;;;5079659;28;20219;-82
2020/12/25 03:00:49;;;;;;;1999.90;999.90;;;4.60;99.90;;;;;;5080102;28;20239;-82
2020/12/25 03:03:14;;;;;;;1999.90;999.90;;;4.50;99.90;;;;;;5061931;28;20171;-81
2020/12/25 03:05:40;;;;;;;1999.90;999.90;;;4.50;99.90;;;;;;5061590;28;20164;-82
2020/12/25 03:08:06;;;;;;;1999.90;999.90;;;4.70;99.90;;;;;;5079491;28;20407;-81
2020/12/25 03:10:31;;;;;;;1999.90;999.90;;;4.60;99.90;;;;;;5079249;28;20164;-81
2020/12/25 03:12:57;;;;;;;1999.90;999.90;;;4.60;99.90;;;;;;5079217;28;20196;-82
2020/12/25 03:15:24;;;;;;;1999.90;999.90;;;4.50;99.90;;;;;;5061500;28;20191;-82
2020/12/25 03:17:49;;;;;;;1999.90;999.90;;;4.50;99.90;;;;;;5079157;28;20499;-81
2020/12/25 03:20:15;;;;;;;1999.90;999.90;;;4.50;99.90;;;;;;5078953;28;20175;-82
2020/12/25 03:22:41;;;;;;;1999.90;999.90;;;4.50;99.90;;;;;;5079466;28;20155;-81
2020/12/25 03:25:06;;;;;;;1999.90;999.90;;;4.50;99.90;;;;;;5078667;28;20395;-81
2020/12/25 03:27:32;;;;;;;1999.90;999.90;;;4.60;99.90;;;;;;5078426;28;20175;-81
2020/12/25 03:29:58;;;;;;;1999.90;999.90;;;4.50;99.90;;;;;;5078357;28;20175;-81
2020/12/25 03:32:23;;;;;;;1999.90;999.90;;;4.50;99.90;;;;;;5079600;28;20171;-82
2020/12/25 03:34:49;;;;;;;1999.90;999.90;;;4.50;99.90;;;;;;5079771;28;20195;-81
2020/12/25 03:37:15;;;;;;;1999.90;999.90;;;4.50;99.90;;;;;;5078405;28;20230;-82
2020/12/25 03:39:40;;;;;;;1999.90;999.90;;;4.50;99.90;;;;;;5079037;28;20194;-81
2020/12/25 03:42:06;;;;;;;1999.90;999.90;;;4.50;99.90;;;;;;5078221;28;20168;-82
2020/12/25 03:44:31;;;;;;;1999.90;999.90;;;4.50;99.90;;;;;;5078480;28;20659;-82
2020/12/25 03:46:57;;;;;;;1999.90;999.90;;;4.50;99.90;;;;;;5078642;28;20167;-82
2020/12/25 03:52:45;;;;;;;1999.90;999.90;;;4.60;99.90;;;;;;5076041;28;20178;-84
2020/12/25 03:56:25;;;;;;;;;;;;;;;;;;;;;
2020/12/25 03:59:03;;;;;;;1999.90;999.90;;;4.50;99.90;;;;;;5037738;28;20227;-84
2020/12/25 04:05:34;;;;;;;;;;;;;;;;;;;;;
2020/12/25 04:11:40;;;;;;;1999.90;999.90;;;4.50;99.90;;;;;;5043169;28;20188;-84
2020/12/25 04:14:26;;;;;;;1999.90;999.90;;;4.60;99.90;;;;;;5031339;28;20164;-84
2020/12/25 04:17:27;;;;;;;1999.90;999.90;;;4.50;99.90;;;;;;5089771;28;20199;-84
2020/12/25 04:19:59;;;;;;;1999.90;999.90;;;4.50;99.90;;;;;;5071670;28;20163;-84
2020/12/25 04:22:56;;;;;;;1999.90;999.90;;;4.50;99.90;;;;;;5089973;28;20160;-84
2020/12/25 04:25:48;;;;;;;1999.90;999.90;;;4.50;99.90;;;;;;5072778;28;20171;-84
2020/12/25 04:28:27;;;;;;;1999.90;999.90;;;4.40;99.90;;;;;;5070578;28;20183;-84
2020/12/25 04:31:04;;;;;;;1999.90;999.90;;;4.40;99.90;;;;;;5090503;28;20151;-84
2020/12/25 04:33:34;;;;;;;1999.90;999.90;;;4.40;99.90;;;;;;5090127;28;20170;-84
2020/12/25 04:36:00;;;;;;;1999.90;999.90;;;4.50;99.90;;;;;;5090305;28;20140;-84
2020/12/25 04:38:32;;;;;;;1999.90;999.90;;;4.50;99.90;;;;;;5090821;28;20159;-84
2020/12/25 04:40:58;;;;;;;1999.90;999.90;;;4.50;99.90;;;;;;5090342;28;20239;-84
2020/12/25 04:43:47;;;;;;;1999.90;999.90;;;4.50;99.90;;;;;;5072967;28;20164;-84
2020/12/25 04:46:36;;;;;;;1999.90;999.90;;;4.40;99.90;;;;;;5090598;28;20144;-84
2020/12/25 04:49:22;;;;;;;1999.90;999.90;;;4.40;99.90;;;;;;5071458;28;20202;-84
2020/12/25 04:51:51;;;;;;;1999.90;999.90;;;4.40;99.90;;;;;;5089370;28;20167;-84
2020/12/25 04:54:26;;;;;;;1999.90;999.90;;;4.40;99.90;;;;;;5089493;28;20642;-84
2020/12/25 05:01:04;;;;;;;1999.90;999.90;;;4.30;99.90;;;;;;4987971;28;20199;-84
2020/12/25 05:03:45;;;;;;;1999.90;999.90;;;4.30;99.90;;;;;;4972739;28;20238;-84
2020/12/25 05:07:09;;;;;;;;;;;;;;;;;;;;;
2020/12/25 05:09:38;;;;;;;1999.90;999.90;;;4.30;99.90;;;;;;5084758;28;20215;-84
2020/12/25 05:12:04;;;;;;;1999.90;999.90;;;4.30;99.90;;;;;;5071013;28;20239;-84
2020/12/25 05:14:34;;;;;;;1999.90;999.90;;;4.40;99.90;;;;;;5088528;28;20171;-84
2020/12/25 05:17:02;;;;;;;1999.90;999.90;;;4.30;99.90;;;;;;5073086;28;20704;-84
2020/12/25 05:19:31;;;;;;;1999.90;999.90;;;4.30;99.90;;;;;;5095044;28;20187;-84
2020/12/25 05:21:59;;;;;;;1999.90;999.90;;;4.10;99.90;;;;;;5094542;28;20171;-84
2020/12/25 05:24:26;;;;;;;1999.90;999.90;;;4.10;99.90;;;;;;5076279;28;20176;-84
2020/12/25 05:26:55;;;;;;;1999.90;999.90;;;4.10;99.90;;;;;;5094563;28;20192;-84
2020/12/25 05:33:31;;;;;;;1999.90;999.90;;;4.20;99.90;;;;;;5032085;28;20182;-84
2020/12/25 05:36:19;;;;;;;1999.90;999.90;;;4.20;99.90;;;;;;5076063;28;20259;-84
2020/12/25 05:38:56;;;;;;;1999.90;999.90;;;4.10;99.90;;;;;;5093432;28;20575;-84
2020/12/25 05:41:25;;;;;;;1999.90;999.90;;;4.10;99.90;;;;;;5075867;28;20170;-85
2020/12/25 05:43:52;;;;;;;1999.90;999.90;;;4.00;99.90;;;;;;5093567;28;20178;-84
2020/12/25 05:46:18;;;;;;;1999.90;999.90;;;4.00;99.90;;;;;;5093636;28;20678;-84
2020/12/25 05:48:51;;;;;;;1999.90;999.90;;;4.10;99.90;;;;;;5093759;28;20677;-84
2020/12/25 05:51:19;;;;;;;1999.90;999.90;;;4.10;99.90;;;;;;5093651;28;20194;-84
2020/12/25 05:54:35;;;;;;;1999.90;999.90;;;4.10;99.90;;;;;;5092713;28;20227;-84
2020/12/25 05:57:10;;;;;;;1999.90;999.90;;;4.00;99.90;;;;;;5034709;28;20201;-84
2020/12/25 05:59:55;;;;;;;1999.90;999.90;;;4.10;99.90;;;;;;5051002;28;20149;-84
2020/12/25 06:02:24;;;;;;;1999.90;999.90;;;4.10;99.90;;;;;;5051018;28;20169;-84
2020/12/25 06:04:58;;;;;;;1999.90;999.90;;;4.00;99.90;;;;;;5034319;28;20192;-84
2020/12/25 06:07:34;;;;;;;1999.90;999.90;;;4.00;99.90;;;;;;5057536;28;20175;-84
2020/12/25 06:10:32;;;;;;;1999.90;999.90;;;4.00;99.90;;;;;;5092589;28;20182;-84
2020/12/25 06:13:36;;;;;;;1999.90;999.90;;;3.90;99.90;;;;;;5075708;28;20239;-84
2020/12/25 06:16:21;;;;;;;;;;;;;;;;;;;;;
2020/12/25 06:19:20;;;;;;;1999.90;999.90;;;3.70;99.90;;;;;;5092873;28;20155;-84
2020/12/25 06:21:49;;;;;;;1999.90;999.90;;;3.60;99.90;;;;;;5074895;28;20179;-84
2020/12/25 06:24:33;;;;;;;1999.90;999.90;;;3.60;99.90;;;;;;5074710;28;20192;-84
2020/12/25 06:27:16;;;;;;;1999.90;999.90;;;3.60;99.90;;;;;;5092459;28;20226;-84
2020/12/25 06:30:09;;;;;;;1999.90;999.90;;;3.60;99.90;;;;;;5072863;28;20564;-84
2020/12/25 06:32:59;;;;;;;1999.90;999.90;;;3.60;99.90;;;;;;5073953;28;20176;-84
2020/12/25 06:36:21;;;;;;;1999.90;999.90;;;3.70;99.90;;;;;;5091890;28;20237;-84
2020/12/25 06:39:02;;;;;;;1999.90;999.90;;;3.60;99.90;;;;;;5027766;28;20187;-84
2020/12/25 06:41:49;;;;;;;1999.90;999.90;;;3.70;99.90;;;;;;5091938;28;20171;-84
2020/12/25 06:45:23;;;;;;;1999.90;999.90;;;3.70;99.90;;;;;;5090924;28;20550;-84
2020/12/25 06:48:27;;;;;;;1999.90;999.90;;;3.70;99.90;;;;;;5080893;28;20203;-84
2020/12/25 06:51:10;;;;;;;1999.90;999.90;;;3.80;99.90;;;;;;5091835;28;20176;-84
2020/12/25 06:54:26;;;;;;;1999.90;999.90;;;3.80;99.90;;;;;;5091533;28;20179;-84
2020/12/25 07:00:39;;;;;;;1999.90;999.90;;;4.00;99.90;;;;;;5074008;28;20172;-84
2020/12/25 07:03:52;;;;;;;1999.90;999.90;;;4.00;99.90;;;;;;5032378;28;20173;-83
2020/12/25 07:09:36;;;;;;;1999.90;999.90;;;4.00;99.90;;;;;;5059595;28;20175;-84
2020/12/25 07:12:29;;;;;;;1999.90;999.90;;;4.00;99.90;;;;;;5089903;28;20164;-84
2020/12/25 07:15:07;;;;;;;1999.90;999.90;;;4.00;99.90;;;;;;5091289;28;20602;-83
2020/12/25 07:17:55;;;;;;;1999.90;999.90;;;3.90;99.90;;;;;;5090787;28;20180;-84
2020/12/25 07:20:35;;;;;;;1999.90;999.90;;;3.90;99.90;;;;;;5090383;28;20156;-84
2020/12/25 07:23:14;;;;;;;1999.90;999.90;;;3.80;99.90;;;;;;5072854;28;20602;-84
2020/12/25 07:26:06;;;;;;;1999.90;999.90;;;3.70;99.90;;;;;;5069309;28;20192;-84
2020/12/25 07:28:51;;;;;;;1999.90;999.90;;;3.70;99.90;;;;;;5068771;28;20163;-84
2020/12/25 07:38:29;;;;;;;;;;;;;;;;;;;;;
2020/12/25 07:41:33;;;;;;;1999.90;999.90;;;3.80;99.90;;;;;;5090564;28;20179;-84
2020/12/25 07:44:55;;;;;;;;;;;;;;;;;;;;;
2020/12/25 07:47:21;;;;;;;1999.90;999.90;;;3.90;99.90;;;;;;5089411;28;20191;-84
2020/12/25 07:50:29;;;;;;;1999.90;999.90;;;4.00;99.90;;;;;;5072548;28;20190;-84
2020/12/25 07:52:58;;;;;;;1999.90;999.90;;;4.00;99.90;;;;;;5090801;28;20207;-84
2020/12/25 07:55:28;;;;;;;1999.90;999.90;;;4.00;99.90;;;;;;5072759;28;20270;-85
2020/12/25 07:58:03;;;;;;;1999.90;999.90;;;4.10;99.90;;;;;;5073095;28;20279;-84
2020/12/25 08:00:30;;;;;;;1999.90;999.90;;;4.20;99.90;;;;;;5091064;28;20181;-84
2020/12/25 08:02:58;;;;;;;1999.90;999.90;;;4.20;99.90;;;;;;5072583;28;20626;-84
2020/12/25 08:05:27;;;;;;;1999.90;999.90;;;4.30;99.90;;;;;;5090815;28;20186;-83
2020/12/25 08:07:53;;;;;;;1999.90;999.90;;;4.20;99.90;;;;;;5089606;28;20537;-84
2020/12/25 08:10:42;;;;;;;1999.90;999.90;;;4.20;99.90;;;;;;5090842;28;20164;-84
2020/12/25 08:16:21;;;;;;;1999.90;999.90;;;4.20;99.90;;;;;;5090713;28;20278;-84
2020/12/25 08:18:50;;;;;;;1999.90;999.90;;;4.20;99.90;;;;;;5090608;28;20152;-83
2020/12/25 08:21:19;;;;;;;1999.90;999.90;;;4.10;99.90;;;;;;5089514;28;20213;-84
2020/12/25 08:24:58;;;;;;;;;;;;;;;;;;;;;
2020/12/25 08:30:51;;;;;;;1999.90;999.90;;;4.00;99.90;;;;;;5040538;28;20152;-84
2020/12/25 08:33:30;;;;;;;1999.90;999.90;;;4.00;99.90;;;;;;5023454;28;20224;-83
2020/12/25 08:35:56;;;;;;;1999.90;999.90;;;4.10;99.90;;;;;;5023692;28;20233;-83
2020/12/25 08:38:21;;;;;;;1999.90;999.90;;;4.10;99.90;;;;;;5063736;28;20175;-82
2020/12/25 08:41:17;;;;;;;1999.90;999.90;;;4.00;99.90;;;;;;5082215;28;20221;-82
2020/12/25 08:43:45;;;;;;;1999.90;999.90;;;4.00;99.90;;;;;;5077627;28;20825;-82
2020/12/25 08:46:14;;;;;;;1999.90;999.90;;;4.00;99.90;;;;;;5064332;28;20172;-83
2020/12/25 08:48:57;;;;;;;1999.90;999.90;;;4.10;99.90;;;;;;5080779;28;20187;-82
2020/12/25 08:51:23;;;;;;;1999.90;999.90;;;4.10;99.90;;;;;;5081813;28;20202;-82
2020/12/25 08:53:51;;;;;;;1999.90;999.90;;;4.20;99.90;;;;;;5067180;28;20198;-83
2020/12/25 08:56:26;;;;;;;1999.90;999.90;;;4.30;99.90;;;;;;5069110;28;20450;-83
2020/12/25 08:59:03;;;;;;;1999.90;999.90;;;4.30;99.90;;;;;;5073301;28;20159;-84
2020/12/25 09:01:30;;;;;;;1999.90;999.90;;;4.20;99.90;;;;;;5089860;28;20175;-83
2020/12/25 09:03:56;;;;;;;1999.90;999.90;;;4.30;99.90;;;;;;5073566;28;20163;-83
2020/12/25 09:06:23;;;;;;;1999.90;999.90;;;4.30;99.90;;;;;;5057014;28;20179;-83
2020/12/25 09:08:48;;;;;;;1999.90;999.90;;;4.30;99.90;;;;;;5073403;28;20417;-83
2020/12/25 09:11:20;;;;;;;1999.90;999.90;;;4.30;99.90;;;;;;5073398;28;20642;-83
2020/12/25 09:13:49;;;;;;;1999.90;999.90;;;4.30;99.90;;;;;;5073283;28;20195;-84
2020/12/25 09:17:15;;;;;;;1999.90;999.90;;;4.30;99.90;;;;;;5090756;28;20178;-83
2020/12/25 09:19:19;;;;;;;1999.90;999.90;;;4.40;99.90;;;;;;5075947;28;20230;-83
2020/12/25 09:21:46;;;;;;;1999.90;999.90;;;4.50;99.90;;;;;;5073034;28;20512;-84
2020/12/25 09:24:12;;;;;;;1999.90;999.90;;;4.50;99.90;;;;;;5091692;28;20163;-83
2020/12/25 09:27:03;;;;;;;1999.90;999.90;;;4.60;99.90;;;;;;5091293;28;20202;-83
2020/12/25 09:29:38;;;;;;;1999.90;999.90;;;4.60;99.90;;;;;;5073478;28;20160;-83
2020/12/25 09:32:07;;;;;;;1999.90;999.90;;;4.70;99.90;;;;;;5087169;28;20178;-83
2020/12/25 09:34:52;;;;;;;1999.90;999.90;;;4.70;99.90;;;;;;5089455;28;20160;-84
2020/12/25 09:37:33;;;;;;;1999.90;999.90;;;4.80;99.90;;;;;;5068869;28;20200;-83
2020/12/25 09:39:59;;;;;;;1999.90;999.90;;;4.80;99.90;;;;;;5086507;28;20622;-84
2020/12/25 09:42:35;;;;;;;1999.90;999.90;;;4.90;99.90;;;;;;5087342;28;20164;-84
2020/12/25 09:45:03;;;;;;;1999.90;999.90;;;5.00;99.90;;;;;;5071559;28;20163;-84
2020/12/25 09:47:37;;;;;;;1999.90;999.90;;;5.10;99.90;;;;;;5075553;28;20262;-84
2020/12/25 09:50:03;;;;;;;1999.90;999.90;;;5.00;99.90;;;;;;5206794;23;20219;-82
2020/12/25 09:52:29;;;;;;;1999.90;999.90;;;5.00;99.90;;;;;;5062071;28;20613;-81
2020/12/25 09:54:55;;;;;;;1999.90;999.90;;;4.90;99.90;;;;;;5080009;28;20191;-81
2020/12/25 09:57:20;;;;;;;1999.90;999.90;;;5.00;99.90;;;;;;5080650;28;20196;-81
2020/12/25 09:59:46;;;;;;;1999.90;999.90;;;5.00;99.90;;;;;;5080226;28;20191;-81
2020/12/25 10:02:12;;;;;;;1999.90;999.90;;;5.00;99.90;;;;;;5062044;28;20186;-81
2020/12/25 10:04:37;;;;;;;1999.90;999.90;;;5.10;99.90;;;;;;5079703;28;20188;-79
2020/12/25 10:07:03;;;;;;;1999.90;999.90;;;5.10;99.90;;;;;;5061838;28;20168;-81
2020/12/25 10:09:29;;;;;;;1999.90;999.90;;;5.10;99.90;;;;;;5062008;28;20164;-81
2020/12/25 10:11:55;;;;;;;1999.90;999.90;;;5.10;99.90;;;;;;5061845;28;20717;-82
2020/12/25 10:14:21;;;;;;;1999.90;999.90;;;5.20;99.90;;;;;;5062471;28;20171;-82
2020/12/25 10:16:46;;;;;;;1999.90;999.90;;;5.20;99.90;;;;;;5062206;28;20278;-82
2020/12/25 10:19:12;;;;;;;1999.90;999.90;;;5.30;99.90;;;;;;5079073;28;20433;-82
2020/12/25 10:21:37;;;;;;;1999.90;999.90;;;5.20;99.90;;;;;;5080536;28;20156;-82
2020/12/25 10:24:03;;;;;;;1999.90;999.90;;;5.20;99.90;;;;;;5079785;28;20156;-82
2020/12/25 10:26:29;;;;;;;1999.90;999.90;;;5.20;99.90;;;;;;5061725;28;20163;-82
2020/12/25 10:28:54;;;;;;;1999.90;999.90;;;5.00;99.90;;;;;;5080074;28;20171;-82
2020/12/25 10:31:20;;;;;;;1999.90;999.90;;;5.10;99.90;;;;;;5079772;28;20172;-82
2020/12/25 10:33:45;;;;;;;1999.90;999.90;;;5.20;99.90;;;;;;5080003;28;20262;-82
2020/12/25 10:36:11;;;;;;;1999.90;999.90;;;5.20;99.90;;;;;;5080257;28;20298;-81
2020/12/25 10:38:37;;;;;;;1999.90;999.90;;;5.40;99.90;;;;;;5079747;28;20171;-82
2020/12/25 10:41:04;;;;;;;1999.90;999.90;;;5.50;99.90;;;;;;5079861;28;20527;-82
2020/12/25 10:43:30;;;;;;;1999.90;999.90;;;5.50;99.90;;;;;;5079727;28;20160;-81
2020/12/25 10:45:55;;;;;;;1999.90;999.90;;;5.30;99.90;;;;;;5080238;28;20171;-82
2020/12/25 10:48:21;;;;;;;1999.90;999.90;;;5.30;99.90;;;;;;5080205;28;20402;-82
2020/12/25 10:50:47;;;;;;;1999.90;999.90;;;5.40;99.90;;;;;;5061379;28;20180;-82
2020/12/25 10:53:12;;;;;;;1999.90;999.90;;;5.30;99.90;;;;;;5079805;28;20558;-82
2020/12/25 10:55:38;;;;;;;1999.90;999.90;;;5.30;99.90;;;;;;5079066;28;20657;-82
2020/12/25 10:58:04;;;;;;;1999.90;999.90;;;5.40;99.90;;;;;;5079251;28;20188;-82
2020/12/25 11:00:30;;;;;;;1999.90;999.90;;;5.30;99.90;;;;;;5079540;28;20171;-82
2020/12/25 11:02:56;;;;;;;1999.90;999.90;;;5.40;99.90;;;;;;5062157;28;20164;-82
2020/12/25 11:05:22;;;;;;;1999.90;999.90;;;5.30;99.90;;;;;;5079515;28;20175;-82
2020/12/25 11:07:47;;;;;;;1999.90;999.90;;;5.30;99.90;;;;;;5079492;28;20569;-82
2020/12/25 11:10:13;;;;;;;1999.90;999.90;;;5.30;99.90;;;;;;5079701;28;20414;-82
2020/12/25 11:12:39;;;;;;;1999.90;999.90;;;5.30;99.90;;;;;;5079221;28;20195;-82
2020/12/25 11:15:04;;;;;;;1999.90;999.90;;;5.30;99.90;;;;;;5079022;28;20164;-82
2020/12/25 11:17:30;;;;;;;1999.90;999.90;;;5.30;99.90;;;;;;5060832;28;20245;-82
2020/12/25 11:19:55;;;;;;;1999.90;999.90;;;5.20;99.90;;;;;;5078652;28;20171;-82
2020/12/25 11:22:24;;;;;;;1999.90;999.90;;;5.20;99.90;;;;;;5079260;28;20164;-82
2020/12/25 11:24:50;;;;;;;1999.90;999.90;;;5.20;99.90;;;;;;5078971;28;20190;-82
2020/12/25 11:27:16;;;;;;;1999.90;999.90;;;5.20;99.90;;;;;;5079300;28;20164;-82
2020/12/25 11:29:41;;;;;;;1999.90;999.90;;;5.30;99.90;;;;;;5079121;28;20928;-83
2020/12/25 11:32:07;;;;;;;1999.90;999.90;;;5.30;99.90;;;;;;5078975;28;20164;-82
2020/12/25 11:34:33;;;;;;;1999.90;999.90;;;5.30;99.90;;;;;;5078617;28;20171;-82
2020/12/25 11:36:59;;;;;;;1999.90;999.90;;;5.30;99.90;;;;;;5078836;28;20184;-82
2020/12/25 11:39:24;;;;;;;1999.90;999.90;;;5.30;99.90;;;;;;5079172;28;20228;-83
2020/12/25 11:41:50;;;;;;;1999.90;999.90;;;5.50;99.90;;;;;;5060242;28;20170;-82
2020/12/25 11:44:15;;;;;;;1999.90;999.90;;;5.60;99.90;;;;;;5078120;28;20171;-82
2020/12/25 11:46:41;;;;;;;1999.90;999.90;;;5.70;99.90;;;;;;5061143;28;20175;-83
2020/12/25 11:49:08;;;;;;;1999.90;999.90;;;5.70;99.90;;;;;;5078859;28;20180;-82
2020/12/25 11:51:34;;;;;;;1999.90;999.90;;;5.80;99.90;;;;;;5078364;28;20538;-82
2020/12/25 11:54:01;;;;;;;1999.90;999.90;;;5.80;99.90;;;;;;5078064;28;20643;-82
2020/12/25 11:56:31;;;;;;;1999.90;999.90;;;5.80;99.90;;;;;;5077969;28;20198;-82
2020/12/25 11:59:01;;;;;;;1999.90;999.90;;;5.80;99.90;;;;;;5078335;28;20164;-82
2020/12/25 12:01:27;;;;;;;1999.90;999.90;;;5.60;99.90;;;;;;5060363;28;20167;-82
2020/12/25 12:03:53;;;;;;;1999.90;999.90;;;5.60;99.90;;;;;;5078344;28;20167;-82
2020/12/25 12:06:24;;;;;;;1999.90;999.90;;;5.80;99.90;;;;;;5078910;28;20163;-82
2020/12/25 12:08:50;;;;;;;1999.90;999.90;;;5.80;99.90;;;;;;5077753;28;20421;-82
2020/12/25 12:11:15;;;;;;;1999.90;999.90;;;5.90;99.90;;;;;;5059582;28;20168;-82
2020/12/25 12:13:41;;;;;;;1999.90;999.90;;;5.90;99.90;;;;;;5077932;28;20164;-83
2020/12/25 12:16:25;;;;;;;1999.90;999.90;;;6.00;99.90;;;;;;5078030;28;20164;-82
2020/12/25 12:18:53;;;;;;;1999.90;999.90;;;5.90;99.90;;;;;;5078202;28;20494;-81
2020/12/25 12:21:19;;;;;;;1999.90;999.90;;;6.00;99.90;;;;;;5060149;28;20152;-82
2020/12/25 12:23:45;;;;;;;1999.90;999.90;;;6.00;99.90;;;;;;5060597;28;20172;-82
2020/12/25 12:26:12;;;;;;;1999.90;999.90;;;6.00;99.90;;;;;;5078636;28;20195;-82
2020/12/25 12:28:38;;;;;;;1999.90;999.90;;;5.80;99.90;;;;;;5077168;28;20398;-82
2020/12/25 12:31:04;;;;;;;1999.90;999.90;;;5.70;99.90;;;;;;5077782;28;20239;-82
2020/12/25 12:33:29;;;;;;;1999.90;999.90;;;5.70;99.90;;;;;;5059897;28;20662;-82
2020/12/25 12:35:55;;;;;;;1999.90;999.90;;;5.70;99.90;;;;;;5077847;28;20164;-82
2020/12/25 12:38:20;;;;;;;1999.90;999.90;;;5.70;99.90;;;;;;5059995;28;20191;-82
2020/12/25 12:40:46;;;;;;;1999.90;999.90;;;5.70;99.90;;;;;;5059927;28;20167;-81
2020/12/25 12:43:12;;;;;;;1999.90;999.90;;;5.70;99.90;;;;;;5077656;28;20156;-81
2020/12/25 12:45:38;;;;;;;1999.90;999.90;;;5.60;99.90;;;;;;5077672;28;20164;-81
2020/12/25 12:48:03;;;;;;;1999.90;999.90;;;5.60;99.90;;;;;;5078066;28;20429;-81
2020/12/25 12:50:29;;;;;;;1999.90;999.90;;;5.60;99.90;;;;;;5059581;28;20191;-81
2020/12/25 12:52:55;;;;;;;1999.90;999.90;;;5.50;99.90;;;;;;5077698;28;20176;-81
2020/12/25 12:55:20;;;;;;;1999.90;999.90;;;5.60;99.90;;;;;;5078111;28;20243;-81
2020/12/25 12:57:46;;;;;;;1999.90;999.90;;;5.50;99.90;;;;;;5077186;28;20199;-81
2020/12/25 13:00:12;;;;;;;1999.90;999.90;;;5.50;99.90;;;;;;5077560;28;20164;-82
2020/12/25 13:02:37;;;;;;;1999.90;999.90;;;5.50;99.90;;;;;;5077644;28;20183;-81
2020/12/25 13:05:03;;;;;;;1999.90;999.90;;;5.60;99.90;;;;;;5077921;28;20171;-82
2020/12/25 13:07:30;;;;;;;1999.90;999.90;;;5.70;99.90;;;;;;5078048;28;20198;-82
2020/12/25 13:09:56;;;;;;;1999.90;999.90;;;5.70;99.90;;;;;;5078249;28;20159;-82
2020/12/25 13:12:22;;;;;;;1999.90;999.90;;;5.70;99.90;;;;;;5078614;28;20187;-81
2020/12/25 13:14:47;;;;;;;1999.90;999.90;;;5.60;99.90;;;;;;5078279;28;20164;-81
2020/12/25 13:17:13;;;;;;;1999.90;999.90;;;5.50;99.90;;;;;;5078008;28;20188;-81